Time;durP1;ratioP1;P1;durP2;ratioP2;P2;SDS_P1;SDS_P2;PMS_P1;PMS_P2;Temp;Humidity;BMP_temperature;BMP_pressure;BME280_temperature;BME280_humidity;BME280_pressure;Samples;Min_cycle;Max_cycle;Signal;HPM_P1;HPM_P2
2022/03/05 00:00:30;;;;;;;;;;;-0.80;99.90;;;;;;5073982;28;20041;-81
2022/03/05 00:02:56;;;;;;;;;;;-0.80;99.90;;;;;;5076767;28;19940;-82
2022/03/05 00:05:22;;;;;;;;;;;-0.90;99.90;;;;;;5077328;28;19958;-81
2022/03/05 00:07:48;;;;;;;;;;;-0.90;99.90;;;;;;5090846;28;19916;-81
2022/03/05 00:10:14;;;;;;;;;;;-1.00;99.90;;;;;;5058556;28;19916;-81
2022/03/05 00:12:39;;;;;;;;;;;-1.00;99.90;;;;;;5070679;28;19939;-81
2022/03/05 00:15:05;;;;;;;;;;;-1.00;99.90;;;;;;5064294;28;19920;-81
2022/03/05 00:17:31;;;;;;;;;;;-1.00;99.90;;;;;;5077937;28;19965;-81
2022/03/05 00:19:57;;;;;;;;;;;-1.00;99.90;;;;;;5064062;28;19924;-81
2022/03/05 00:22:23;;;;;;;;;;;-1.00;99.90;;;;;;5082565;28;19966;-80
2022/03/05 00:24:49;;;;;;;;;;;-1.10;99.90;;;;;;5067299;28;19924;-81
2022/03/05 00:27:14;;;;;;;;;;;-1.10;99.90;;;;;;5079359;28;19966;-81
2022/03/05 00:29:40;;;;;;;;;;;-1.10;99.90;;;;;;5076392;28;19909;-80
2022/03/05 00:32:06;;;;;;;;;;;-1.10;99.90;;;;;;5063645;28;19955;-81
2022/03/05 00:34:31;;;;;;;;;;;-1.10;99.90;;;;;;5055724;28;19970;-81
2022/03/05 00:36:57;;;;;;;;;;;-1.20;99.90;;;;;;5083429;28;20406;-82
2022/03/05 00:39:22;;;;;;;;;;;-1.20;99.90;;;;;;5066627;28;19920;-81
2022/03/05 00:41:48;;;;;;;;;;;-1.20;99.90;;;;;;5085085;28;20065;-80
2022/03/05 00:44:14;;;;;;;;;;;-1.20;99.90;;;;;;5077019;28;20413;-82
2022/03/05 00:46:41;;;;;;;;;;;-1.20;99.90;;;;;;5080263;28;19912;-81
2022/03/05 00:49:07;;;;;;;;;;;-1.30;99.90;;;;;;5071129;28;19927;-81
2022/03/05 00:51:33;;;;;;;;;;;-1.30;99.90;;;;;;5079573;28;19912;-80
2022/03/05 00:53:59;;;;;;;;;;;-1.30;99.90;;;;;;5071476;28;19912;-80
2022/03/05 00:56:24;;;;;;;;;;;-1.30;99.90;;;;;;5071209;28;19931;-80
2022/03/05 00:58:50;;;;;;;;;;;-1.30;99.90;;;;;;5084372;28;19912;-81
2022/03/05 01:01:15;;;;;;;;;;;-1.30;99.90;;;;;;5085048;28;19923;-82
2022/03/05 01:03:41;;;;;;;;;;;-1.30;99.90;;;;;;5089653;28;19985;-80
2022/03/05 01:06:06;;;;;;;;;;;-1.30;99.90;;;;;;5066563;28;19974;-80
2022/03/05 01:08:33;;;;;;;;;;;-1.30;99.90;;;;;;5087580;28;19916;-81
2022/03/05 01:10:59;;;;;;;;;;;-1.30;99.90;;;;;;5079965;28;20003;-80
2022/03/05 01:13:25;;;;;;;;;;;-1.40;99.90;;;;;;5084033;28;19951;-80
2022/03/05 01:15:50;;;;;;;;;;;-1.40;99.90;;;;;;5063745;28;19921;-80
2022/03/05 01:18:16;;;;;;;;;;;-1.40;99.90;;;;;;5076411;28;19977;-83
2022/03/05 01:20:41;;;;;;;;;;;-1.40;99.90;;;;;;5089183;28;19969;-81
2022/03/05 01:23:07;;;;;;;;;;;-1.40;99.90;;;;;;5073988;28;19928;-81
2022/03/05 01:25:33;;;;;;;;;;;-1.30;99.90;;;;;;5063342;28;19917;-81
2022/03/05 01:27:58;;;;;;;;;;;-1.30;99.90;;;;;;5094168;28;20311;-81
2022/03/05 01:30:27;;;;;;;;;;;-1.30;99.90;;;;;;5087106;28;19919;-81
2022/03/05 01:32:52;;;;;;;;;;;-1.30;99.90;;;;;;5078152;28;19912;-81
2022/03/05 01:35:18;;;;;;;;;;;-1.30;99.90;;;;;;5061961;28;19912;-82
2022/03/05 01:37:44;;;;;;;;;;;-1.30;99.90;;;;;;5069131;28;20011;-82
2022/03/05 01:40:09;;;;;;;;;;;-1.30;99.90;;;;;;5062315;28;19920;-80
2022/03/05 01:42:35;;;;;;;;;;;-1.30;99.90;;;;;;5094660;28;19916;-80
2022/03/05 01:45:03;;;;;;;;;;;-1.40;99.90;;;;;;5070748;28;19943;-81
2022/03/05 01:47:29;;;;;;;;;;;-1.40;99.90;;;;;;5086767;28;19916;-82
2022/03/05 01:49:55;;;;;;;;;;;-1.40;99.90;;;;;;5083831;28;19971;-83
2022/03/05 01:52:20;;;;;;;;;;;-1.40;99.90;;;;;;5066918;28;19920;-82
2022/03/05 01:54:46;;;;;;;;;;;-1.40;99.90;;;;;;5096086;28;19912;-81
2022/03/05 01:57:12;;;;;;;;;;;-1.40;99.90;;;;;;5103627;22;19924;-85
2022/03/05 01:59:37;;;;;;;;;;;-1.40;99.90;;;;;;5082257;28;19963;-85
2022/03/05 02:02:03;;;;;;;;;;;-1.40;99.90;;;;;;5062751;28;19919;-85
2022/03/05 02:04:29;;;;;;;;;;;-1.40;99.90;;;;;;5061003;28;19920;-85
2022/03/05 02:06:54;;;;;;;;;;;-1.50;99.90;;;;;;5061575;28;20438;-85
2022/03/05 02:09:20;;;;;;;;;;;-1.40;99.90;;;;;;5049527;28;19932;-85
2022/03/05 02:11:46;;;;;;;;;;;-1.40;99.90;;;;;;5057145;28;19927;-85
2022/03/05 02:14:12;;;;;;;;;;;-1.40;99.90;;;;;;5076002;28;20209;-85
2022/03/05 02:16:37;;;;;;;;;;;-1.40;99.90;;;;;;5044574;28;20308;-85
2022/03/05 02:19:05;;;;;;;;;;;-1.50;99.90;;;;;;5039199;28;19916;-85
2022/03/05 02:21:30;;;;;;;;;;;-1.50;99.90;;;;;;5054708;28;19921;-85
2022/03/05 02:23:56;;;;;;;;;;;-1.50;99.90;;;;;;5067926;28;19920;-85
2022/03/05 02:26:22;;;;;;;;;;;-1.50;99.90;;;;;;5047497;28;20119;-85
2022/03/05 02:28:48;;;;;;;;;;;-1.50;99.90;;;;;;5054082;28;20399;-85
2022/03/05 02:31:14;;;;;;;;;;;-1.50;99.90;;;;;;5043959;28;19921;-85
2022/03/05 02:33:40;;;;;;;;;;;-1.50;99.90;;;;;;5040609;28;19930;-85
2022/03/05 02:36:05;;;;;;;;;;;-1.60;99.90;;;;;;5080577;28;20395;-85
2022/03/05 02:38:31;;;;;;;;;;;-1.60;99.90;;;;;;5050862;28;19970;-85
2022/03/05 02:40:56;;;;;;;;;;;-1.60;99.90;;;;;;5054103;28;19977;-85
2022/03/05 02:43:22;;;;;;;;;;;-1.60;99.90;;;;;;5061040;28;19916;-85
2022/03/05 02:45:48;;;;;;;;;;;-1.60;99.90;;;;;;5058939;28;20004;-85
2022/03/05 02:48:17;;;;;;;;;;;-1.60;99.90;;;;;;5045601;28;20328;-85
2022/03/05 02:50:44;;;;;;;;;;;-1.70;99.90;;;;;;5036877;28;20499;-85
2022/03/05 02:53:09;;;;;;;;;;;-1.70;99.90;;;;;;5052119;28;19967;-85
2022/03/05 02:55:35;;;;;;;;;;;-1.80;99.90;;;;;;5055521;28;19952;-85
2022/03/05 02:58:01;;;;;;;;;;;-1.80;99.90;;;;;;5056264;28;19931;-85
2022/03/05 03:00:29;;;;;;;;;;;-1.80;99.90;;;;;;5058591;28;20054;-85
2022/03/05 03:02:54;;;;;;;;;;;-1.80;99.90;;;;;;5051459;28;19917;-85
2022/03/05 03:05:21;;;;;;;;;;;-1.80;99.90;;;;;;5048408;28;19967;-85
2022/03/05 03:07:47;;;;;;;;;;;-1.90;99.90;;;;;;5057478;28;20305;-85
2022/03/05 03:10:13;;;;;;;;;;;-1.90;99.90;;;;;;5065266;28;19916;-86
2022/03/05 03:12:39;;;;;;;;;;;-1.90;99.90;;;;;;5036780;28;20007;-85
2022/03/05 03:15:06;;;;;;;;;;;-1.90;99.90;;;;;;5035221;28;19928;-85
2022/03/05 03:17:50;;;;;;;;;;;-2.00;99.90;;;;;;5061498;28;19916;-85
2022/03/05 03:20:17;;;;;;;;;;;-2.00;99.90;;;;;;5058766;28;20017;-85
2022/03/05 03:22:43;;;;;;;;;;;-2.10;99.90;;;;;;5057300;28;20019;-85
2022/03/05 03:25:10;;;;;;;;;;;-2.10;99.90;;;;;;5060525;28;20369;-85
2022/03/05 03:27:36;;;;;;;;;;;-2.10;99.90;;;;;;5070389;28;20178;-85
2022/03/05 03:30:02;;;;;;;;;;;-2.10;99.90;;;;;;5063075;28;20354;-85
2022/03/05 03:32:27;;;;;;;;;;;-2.10;99.90;;;;;;5049964;28;19917;-85
2022/03/05 03:34:53;;;;;;;;;;;-2.10;99.90;;;;;;5064282;28;19916;-85
2022/03/05 03:37:18;;;;;;;;;;;-2.10;99.90;;;;;;5059760;28;19916;-85
2022/03/05 03:39:44;;;;;;;;;;;-2.10;99.90;;;;;;5066249;28;19920;-85
2022/03/05 03:42:09;;;;;;;;;;;-2.10;99.90;;;;;;5035812;28;19928;-85
2022/03/05 03:44:35;;;;;;;;;;;-2.10;99.90;;;;;;5065275;28;19924;-85
2022/03/05 03:47:00;;;;;;;;;;;-2.10;99.90;;;;;;5032894;28;19932;-85
2022/03/05 03:49:26;;;;;;;;;;;-2.20;99.90;;;;;;5074655;28;19919;-85
2022/03/05 03:51:51;;;;;;;;;;;-2.20;99.90;;;;;;5044625;28;20019;-85
2022/03/05 03:54:17;;;;;;;;;;;-2.20;99.90;;;;;;5080392;28;20121;-85
2022/03/05 03:56:42;;;;;;;;;;;-2.20;99.90;;;;;;5055293;28;20292;-85
2022/03/05 03:59:08;;;;;;;;;;;-2.20;99.90;;;;;;5062842;28;20224;-85
2022/03/05 04:01:33;;;;;;;;;;;-2.20;99.90;;;;;;5064217;28;19932;-84
2022/03/05 04:03:59;;;;;;;;;;;-2.20;99.90;;;;;;5047637;28;20407;-85
2022/03/05 04:06:24;;;;;;;;;;;-2.20;99.90;;;;;;5060074;28;19963;-85
2022/03/05 04:08:50;;;;;;;;;;;-2.20;99.90;;;;;;5058789;28;20408;-85
2022/03/05 04:11:18;;;;;;;;;;;-2.20;99.90;;;;;;5041564;28;19932;-85
2022/03/05 04:13:45;;;;;;;;;;;-2.20;99.90;;;;;;5052104;28;19917;-85
2022/03/05 04:16:11;;;;;;;;;;;-2.20;99.90;;;;;;5064531;28;19912;-85
2022/03/05 04:18:36;;;;;;;;;;;-2.10;99.90;;;;;;5068683;28;19939;-85
2022/03/05 04:21:02;;;;;;;;;;;-2.10;99.90;;;;;;5057217;28;19978;-85
2022/03/05 04:23:28;;;;;;;;;;;-2.10;99.90;;;;;;5060463;28;19919;-85
2022/03/05 04:25:53;;;;;;;;;;;-2.10;99.90;;;;;;5063346;28;19962;-85
2022/03/05 04:28:19;;;;;;;;;;;-2.10;99.90;;;;;;5062133;28;19935;-85
2022/03/05 04:30:45;;;;;;;;;;;-2.10;99.90;;;;;;5051981;28;19921;-85
2022/03/05 04:33:11;;;;;;;;;;;-2.10;99.90;;;;;;5054800;28;19913;-85
2022/03/05 04:35:36;;;;;;;;;;;-2.10;99.90;;;;;;5046102;28;19970;-85
2022/03/05 04:38:02;;;;;;;;;;;-2.10;99.90;;;;;;5064871;28;20351;-86
2022/03/05 04:40:28;;;;;;;;;;;-2.10;99.90;;;;;;5064594;28;20010;-85
2022/03/05 04:42:53;;;;;;;;;;;-2.20;99.90;;;;;;5063964;28;19975;-85
2022/03/05 04:45:18;;;;;;;;;;;-2.20;99.90;;;;;;5064216;28;19920;-85
2022/03/05 04:47:44;;;;;;;;;;;-2.20;99.90;;;;;;5058044;28;19920;-85
2022/03/05 04:50:13;;;;;;;;;;;-2.30;99.90;;;;;;5044712;28;19927;-84
2022/03/05 04:52:38;;;;;;;;;;;-2.30;99.90;;;;;;5063907;28;20448;-84
2022/03/05 04:55:04;;;;;;;;;;;-2.40;99.90;;;;;;5046437;28;20015;-85
2022/03/05 04:57:30;;;;;;;;;;;-2.40;99.90;;;;;;5048137;28;20381;-85
2022/03/05 04:59:55;;;;;;;;;;;-2.40;99.90;;;;;;5048138;28;19932;-85
2022/03/05 05:02:21;;;;;;;;;;;-2.50;99.90;;;;;;5074033;28;19921;-85
2022/03/05 05:04:46;;;;;;;;;;;-2.50;99.90;;;;;;5065454;28;19916;-85
2022/03/05 05:07:12;;;;;;;;;;;-2.50;99.90;;;;;;5036735;28;19970;-85
2022/03/05 05:09:38;;;;;;;;;;;-2.50;99.90;;;;;;5050334;28;19924;-84
2022/03/05 05:12:08;;;;;;;;;;;-2.50;99.90;;;;;;5051387;28;19917;-85
2022/03/05 05:14:34;;;;;;;;;;;-2.50;99.90;;;;;;5067425;28;19920;-85
2022/03/05 05:16:59;;;;;;;;;;;-2.60;99.90;;;;;;5060955;28;20296;-85
2022/03/05 05:19:25;;;;;;;;;;;-2.60;99.90;;;;;;5044069;28;20423;-85
2022/03/05 05:21:51;;;;;;;;;;;-2.60;99.90;;;;;;5040882;28;20027;-84
2022/03/05 05:24:18;;;;;;;;;;;-2.60;99.90;;;;;;5067500;28;19916;-85
2022/03/05 05:26:43;;;;;;;;;;;-2.70;99.90;;;;;;5059290;28;19916;-85
2022/03/05 05:29:09;;;;;;;;;;;-2.70;99.90;;;;;;5083441;28;19922;-85
2022/03/05 05:31:35;;;;;;;;;;;-2.70;99.90;;;;;;5048192;28;19970;-85
2022/03/05 05:34:01;;;;;;;;;;;-2.70;99.90;;;;;;5069220;28;20331;-85
2022/03/05 05:36:26;;;;;;;;;;;-2.70;99.90;;;;;;5060866;28;20012;-85
2022/03/05 05:38:52;;;;;;;;;;;-2.70;99.90;;;;;;5046643;28;20356;-85
2022/03/05 05:41:18;;;;;;;;;;;-2.70;99.90;;;;;;5050785;28;20010;-85
2022/03/05 05:43:44;;;;;;;;;;;-2.60;99.90;;;;;;5058889;28;19927;-85
2022/03/05 05:46:12;;;;;;;;;;;-2.70;99.90;;;;;;5062292;28;19916;-85
2022/03/05 05:48:38;;;;;;;;;;;-2.70;99.90;;;;;;5048902;28;20312;-85
2022/03/05 05:51:04;;;;;;;;;;;-2.70;99.90;;;;;;5042140;28;19917;-85
2022/03/05 05:53:30;;;;;;;;;;;-2.80;99.90;;;;;;5043958;28;19959;-85
2022/03/05 05:55:55;;;;;;;;;;;-2.80;99.90;;;;;;5062147;28;19923;-85
2022/03/05 05:58:21;;;;;;;;;;;-2.90;99.90;;;;;;5047281;28;19916;-85
2022/03/05 06:00:47;;;;;;;;;;;-2.90;99.90;;;;;;5058778;28;19924;-85
2022/03/05 06:03:12;;;;;;;;;;;-2.90;99.90;;;;;;5033279;28;20011;-85
2022/03/05 06:05:38;;;;;;;;;;;-2.90;99.90;;;;;;5058212;28;19973;-85
2022/03/05 06:08:03;;;;;;;;;;;-2.90;99.90;;;;;;5058590;28;20327;-85
2022/03/05 06:10:29;;;;;;;;;;;-2.90;99.90;;;;;;5041403;28;19967;-85
2022/03/05 06:12:54;;;;;;;;;;;-2.90;99.90;;;;;;5046796;28;19985;-85
2022/03/05 06:15:20;;;;;;;;;;;-2.90;99.90;;;;;;5045262;28;19963;-85
2022/03/05 06:17:45;;;;;;;;;;;-2.90;99.90;;;;;;5049120;28;19922;-85
2022/03/05 06:20:11;;;;;;;;;;;-2.80;99.90;;;;;;5039782;28;20381;-85
2022/03/05 06:22:37;;;;;;;;;;;-2.90;99.90;;;;;;5064844;28;19999;-84
2022/03/05 06:25:03;;;;;;;;;;;-2.80;99.90;;;;;;5065181;28;19955;-85
2022/03/05 06:27:28;;;;;;;;;;;-2.80;99.90;;;;;;5038972;28;19924;-85
2022/03/05 06:29:54;;;;;;;;;;;-2.80;99.90;;;;;;5051085;28;20270;-85
2022/03/05 06:32:19;;;;;;;;;;;-2.70;99.90;;;;;;5051924;28;19951;-85
2022/03/05 06:34:45;;;;;;;;;;;-2.70;99.90;;;;;;5036159;28;19941;-85
2022/03/05 06:37:10;;;;;;;;;;;-2.60;99.90;;;;;;5068427;28;19952;-85
2022/03/05 06:39:39;;;;;;;;;;;-2.60;99.90;;;;;;5065783;28;19912;-85
2022/03/05 06:42:06;;;;;;;;;;;-2.50;99.90;;;;;;5049609;28;19925;-85
2022/03/05 06:44:31;;;;;;;;;;;-2.50;99.90;;;;;;5058047;28;20003;-85
2022/03/05 06:46:57;;;;;;;;;;;-2.50;99.90;;;;;;5051821;28;19999;-85
2022/03/05 06:49:23;;;;;;;;;;;-2.40;99.90;;;;;;5032591;28;19925;-85
2022/03/05 06:51:48;;;;;;;;;;;-2.40;99.90;;;;;;5067369;28;20066;-85
2022/03/05 06:54:13;;;;;;;;;;;-2.30;99.90;;;;;;5046219;28;20323;-85
2022/03/05 06:56:39;;;;;;;;;;;-2.30;99.90;;;;;;5062473;28;19917;-85
2022/03/05 06:59:05;;;;;;;;;;;-2.20;99.90;;;;;;5051084;28;19989;-85
2022/03/05 07:01:31;;;;;;;;;;;-2.10;99.90;;;;;;5059073;28;20369;-85
2022/03/05 07:03:56;;;;;;;;;;;-2.00;99.90;;;;;;5074621;28;19969;-85
2022/03/05 07:06:22;;;;;;;;;;;-1.90;99.90;;;;;;5058094;28;19920;-85
2022/03/05 07:08:47;;;;;;;;;;;-1.80;99.90;;;;;;5054811;28;19920;-85
2022/03/05 07:11:13;;;;;;;;;;;-1.70;99.90;;;;;;5032841;28;20369;-85
2022/03/05 07:13:38;;;;;;;;;;;-1.60;99.90;;;;;;5073996;28;20366;-85
2022/03/05 07:16:04;;;;;;;;;;;-1.50;99.90;;;;;;5057025;28;19921;-86
2022/03/05 07:18:29;;;;;;;;;;;-1.40;99.90;;;;;;5053999;28;20019;-85
2022/03/05 07:20:57;;;;;;;;;;;-1.30;99.90;;;;;;5061679;28;19921;-85
2022/03/05 07:23:23;;;;;;;;;;;-1.30;99.90;;;;;;5031984;28;19917;-85
2022/03/05 07:25:48;;;;;;;;;;;-1.10;99.90;;;;;;5056921;28;19927;-85
2022/03/05 07:28:14;;;;;;;;;;;-1.10;99.90;;;;;;5067060;28;19914;-86
2022/03/05 07:30:39;;;;;;;;;;;-1.00;99.90;;;;;;5059323;28;20383;-86
2022/03/05 07:33:05;;;;;;;;;;;-0.90;99.90;;;;;;5050729;28;19912;-85
2022/03/05 07:35:31;;;;;;;;;;;-0.80;99.90;;;;;;5044872;28;20388;-85
2022/03/05 07:37:56;;;;;;;;;;;-0.70;99.90;;;;;;5055692;28;19920;-85
2022/03/05 07:40:22;;;;;;;;;;;-0.70;99.90;;;;;;5037557;28;19976;-85
2022/03/05 07:42:47;;;;;;;;;;;-0.60;99.90;;;;;;5062882;28;19917;-84
2022/03/05 07:45:13;;;;;;;;;;;-0.50;99.90;;;;;;5079319;28;20368;-84
2022/03/05 07:47:38;;;;;;;;;;;-0.40;99.90;;;;;;5057379;28;20361;-85
2022/03/05 07:50:04;;;;;;;;;;;-0.40;99.90;;;;;;5065232;28;19928;-85
2022/03/05 07:52:30;;;;;;;;;;;-0.30;99.90;;;;;;5065798;28;19932;-85
2022/03/05 07:54:56;;;;;;;;;;;-0.20;99.90;;;;;;5062497;28;20002;-86
2022/03/05 07:57:21;;;;;;;;;;;-0.10;99.90;;;;;;5077013;22;19925;-82
2022/03/05 07:59:46;;;;;;;;;;;-0.10;99.90;;;;;;5073604;28;19912;-84
2022/03/05 08:02:15;;;;;;;;;;;0.00;99.90;;;;;;5074350;28;19928;-84
2022/03/05 08:04:41;;;;;;;;;;;0.10;99.90;;;;;;5073287;28;20007;-83
2022/03/05 08:07:07;;;;;;;;;;;0.10;99.90;;;;;;5053315;28;19988;-83
2022/03/05 08:09:34;;;;;;;;;;;0.20;99.90;;;;;;5070800;28;19956;-84
2022/03/05 08:11:59;;;;;;;;;;;0.20;99.90;;;;;;5070948;28;19920;-83
2022/03/05 08:14:25;;;;;;;;;;;0.30;99.90;;;;;;5041332;28;19975;-83
2022/03/05 08:16:50;;;;;;;;;;;0.40;99.90;;;;;;5039924;28;19995;-84
2022/03/05 08:19:16;;;;;;;;;;;0.50;99.90;;;;;;5070005;28;19948;-83
2022/03/05 08:21:44;;;;;;;;;;;0.60;99.90;;;;;;5052340;28;20074;-84
2022/03/05 08:24:10;;;;;;;;;;;0.60;99.90;;;;;;5036108;28;19916;-85
2022/03/05 08:26:36;;;;;;;;;;;0.70;99.90;;;;;;5052058;28;19991;-84
2022/03/05 08:29:02;;;;;;;;;;;0.80;99.90;;;;;;5029385;28;19921;-82
2022/03/05 08:31:27;;;;;;;;;;;0.90;99.90;;;;;;5052876;28;19926;-84
2022/03/05 08:33:53;;;;;;;;;;;0.90;99.90;;;;;;5051596;28;19927;-84
2022/03/05 08:36:19;;;;;;;;;;;1.00;99.90;;;;;;5051722;28;20377;-83
2022/03/05 08:38:44;;;;;;;;;;;1.10;99.90;;;;;;5067914;28;19959;-84
2022/03/05 08:41:10;;;;;;;;;;;1.20;99.90;;;;;;5035300;28;19928;-83
2022/03/05 08:43:36;;;;;;;;;;;1.30;99.90;;;;;;5051857;28;19932;-84
2022/03/05 08:46:02;;;;;;;;;;;1.40;99.90;;;;;;5051616;28;19940;-84
2022/03/05 08:48:28;;;;;;;;;;;1.40;99.90;;;;;;5051411;28;19912;-83
2022/03/05 08:50:53;;;;;;;;;;;1.50;99.90;;;;;;5057026;28;20010;-84
2022/03/05 08:53:19;;;;;;;;;;;1.60;99.90;;;;;;5051875;28;20310;-83
2022/03/05 08:55:44;;;;;;;;;;;1.60;99.90;;;;;;5068908;28;19920;-83
2022/03/05 08:58:10;;;;;;;;;;;1.70;99.70;;;;;;5053450;28;19921;-84
2022/03/05 09:00:35;;;;;;;;;;;1.80;99.90;;;;;;5036126;28;19959;-84
2022/03/05 09:03:01;;;;;;;;;;;1.80;99.90;;;;;;5035303;28;20312;-82
2022/03/05 09:05:26;;;;;;;;;;;1.80;98.80;;;;;;5068035;28;19917;-83
2022/03/05 09:07:52;;;;;;;;;;;1.90;97.90;;;;;;5052041;28;19967;-83
2022/03/05 09:10:18;;;;;;;;;;;1.90;97.90;;;;;;5052274;28;19917;-83
2022/03/05 09:12:44;;;;;;;;;;;2.00;97.40;;;;;;5052171;28;20015;-83
2022/03/05 09:15:10;;;;;;;;;;;2.00;97.30;;;;;;5051277;28;19999;-82
2022/03/05 09:17:35;;;;;;;;;;;2.10;96.70;;;;;;5058558;28;20476;-82
2022/03/05 09:20:01;;;;;;;;;;;2.10;96.40;;;;;;5051064;28;20008;-83
2022/03/05 09:22:27;;;;;;;;;;;2.20;96.70;;;;;;5055162;28;19966;-83
2022/03/05 09:24:52;;;;;;;;;;;2.20;95.90;;;;;;5033980;28;19970;-83
2022/03/05 09:27:18;;;;;;;;;;;2.30;95.40;;;;;;5033761;28;19917;-83
2022/03/05 09:29:44;;;;;;;;;;;2.40;95.60;;;;;;5057864;28;19921;-82
2022/03/05 09:32:09;;;;;;;;;;;2.40;94.00;;;;;;5040590;28;19923;-84
2022/03/05 09:34:35;;;;;;;;;;;2.50;93.60;;;;;;5050378;28;19924;-83
2022/03/05 09:37:01;;;;;;;;;;;2.60;93.80;;;;;;5051072;28;19912;-84
2022/03/05 09:39:27;;;;;;;;;;;2.70;92.10;;;;;;5050847;28;19958;-83
2022/03/05 09:41:53;;;;;;;;;;;2.80;90.20;;;;;;5065627;28;19950;-82
2022/03/05 09:44:19;;;;;;;;;;;2.90;89.00;;;;;;5065583;28;19948;-83
2022/03/05 09:46:44;;;;;;;;;;;3.00;88.20;;;;;;5050022;28;19948;-83
2022/03/05 09:49:10;;;;;;;;;;;3.00;82.40;;;;;;5050888;28;19917;-83
2022/03/05 09:51:36;;;;;;;;;;;3.00;79.60;;;;;;5051681;28;19920;-83
2022/03/05 09:54:02;;;;;;;;;;;3.10;77.00;;;;;;5033839;28;19929;-83
2022/03/05 09:56:28;;;;;;;;;;;3.10;74.80;;;;;;5050478;28;19917;-83
2022/03/05 09:58:54;;;;;;;;;;;3.10;72.60;;;;;;5066818;28;20343;-83
2022/03/05 10:01:20;;;;;;;;;;;3.20;73.50;;;;;;5066862;28;20015;-83
2022/03/05 10:03:46;;;;;;;;;;;3.30;72.40;;;;;;5049648;28;19916;-84
2022/03/05 10:06:21;;;;;;;;;;;3.40;75.20;;;;;;5050478;28;19912;-85
2022/03/05 10:08:47;;;;;;;;;;;3.50;70.90;;;;;;5049399;28;20066;-84
2022/03/05 10:11:13;;;;;;;;;;;3.60;70.60;;;;;;5050554;28;19920;-83
2022/03/05 10:13:40;;;;;;;;;;;3.70;69.10;;;;;;5063201;28;19924;-83
2022/03/05 10:16:28;;;;;;;;;;;3.80;66.30;;;;;;5066389;28;19923;-83
2022/03/05 10:18:54;;;;;;;;;;;3.90;65.40;;;;;;5065758;28;20434;-84
2022/03/05 10:21:25;;;;;;;;;;;3.90;65.00;;;;;;5049865;28;20015;-82
2022/03/05 10:24:02;;;;;;;;;;;4.00;64.10;;;;;;5050148;28;19913;-84
2022/03/05 10:26:27;;;;;;;;;;;4.00;63.90;;;;;;5059959;28;20380;-83
2022/03/05 10:28:53;;;;;;;;;;;4.10;63.40;;;;;;5032406;28;19924;-83
2022/03/05 10:31:18;;;;;;;;;;;4.20;62.60;;;;;;5057731;28;19925;-83
2022/03/05 10:33:45;;;;;;;;;;;4.20;59.80;;;;;;5066280;28;19917;-82
2022/03/05 10:36:18;;;;;;;;;;;4.30;59.50;;;;;;5032998;28;19920;-83
2022/03/05 10:38:43;;;;;;;;;;;4.30;58.90;;;;;;5065535;28;20470;-83
2022/03/05 10:41:09;;;;;;;;;;;4.30;59.50;;;;;;5065478;28;19920;-83
2022/03/05 10:43:34;;;;;;;;;;;4.40;58.10;;;;;;5050341;28;19927;-83
2022/03/05 10:46:00;;;;;;;;;;;4.40;58.00;;;;;;5046278;28;19912;-84
2022/03/05 10:48:30;;;;;;;;;;;4.50;58.10;;;;;;5050608;28;19963;-83
2022/03/05 10:50:59;;;;;;;;;;;4.60;59.10;;;;;;5064795;28;19925;-84
2022/03/05 10:53:42;;;;;;;;;;;4.60;58.80;;;;;;5065676;28;20351;-85
2022/03/05 10:56:19;;;;;;;;;;;4.70;57.00;;;;;;5062645;28;20127;-83
2022/03/05 10:58:55;;;;;;;;;;;4.80;56.90;;;;;;5065775;28;20428;-83
2022/03/05 11:01:21;;;;;;;;;;;4.90;56.80;;;;;;5065723;28;20303;-82
2022/03/05 11:03:47;;;;;;;;;;;5.00;57.30;;;;;;5050398;28;20011;-85
2022/03/05 11:06:13;;;;;;;;;;;5.00;56.50;;;;;;5049072;28;20011;-84
2022/03/05 11:08:39;;;;;;;;;;;5.10;55.70;;;;;;5031792;28;19924;-83
2022/03/05 11:11:05;;;;;;;;;;;5.20;56.10;;;;;;5065624;28;19921;-83
2022/03/05 11:13:31;;;;;;;;;;;5.30;55.40;;;;;;5049496;28;19921;-84
2022/03/05 11:16:11;;;;;;;;;;;5.40;54.80;;;;;;5109830;27;19916;-80
2022/03/05 11:18:37;;;;;;;;;;;5.40;55.00;;;;;;5107877;28;19912;-80
2022/03/05 11:21:03;;;;;;;;;;;5.50;54.50;;;;;;5107829;28;19942;-80
2022/03/05 11:23:30;;;;;;;;;;;5.50;54.40;;;;;;5108697;28;20386;-80
2022/03/05 11:25:56;;;;;;;;;;;5.60;54.40;;;;;;5087441;28;19974;-80
2022/03/05 11:28:22;;;;;;;;;;;5.70;55.00;;;;;;5087806;28;19912;-80
2022/03/05 11:30:51;;;;;;;;;;;5.70;54.10;;;;;;5087949;28;19948;-81
2022/03/05 11:33:20;;;;;;;;;;;5.70;53.80;;;;;;5070453;28;19916;-81
2022/03/05 11:35:46;;;;;;;;;;;5.70;52.80;;;;;;5087637;28;19978;-81
2022/03/05 11:38:30;;;;;;;;;;;5.60;52.90;;;;;;5087984;28;20371;-81
2022/03/05 11:40:56;;;;;;;;;;;5.70;53.50;;;;;;5087749;28;19939;-80
2022/03/05 11:43:22;;;;;;;;;;;5.70;52.50;;;;;;5070799;28;19916;-80
2022/03/05 11:46:04;;;;;;;;;;;5.70;52.60;;;;;;5086866;28;19958;-81
2022/03/05 11:48:34;;;;;;;;;;;5.80;52.60;;;;;;5055238;28;20374;-81
2022/03/05 11:51:17;;;;;;;;;;;5.80;51.90;;;;;;5068542;28;20356;-80
2022/03/05 11:53:43;;;;;;;;;;;5.80;51.70;;;;;;5081097;28;20019;-80
2022/03/05 11:56:21;;;;;;;;;;;5.90;51.80;;;;;;5086569;28;19970;-80
2022/03/05 11:58:46;;;;;;;;;;;5.90;51.60;;;;;;5086507;28;19966;-80
2022/03/05 12:01:31;;;;;;;;;;;6.00;51.00;;;;;;5086440;28;19912;-80
2022/03/05 12:03:58;;;;;;;;;;;6.00;50.80;;;;;;5086754;28;19913;-79
2022/03/05 12:06:24;;;;;;;;;;;6.00;51.40;;;;;;5086784;28;19912;-80
2022/03/05 12:08:50;;;;;;;;;;;6.00;50.80;;;;;;5086335;28;19933;-79
2022/03/05 12:11:16;;;;;;;;;;;6.10;50.90;;;;;;5086496;28;19912;-80
2022/03/05 12:13:43;;;;;;;;;;;6.20;50.30;;;;;;5069760;28;20019;-80
2022/03/05 12:16:22;;;;;;;;;;;6.20;49.00;;;;;;5087717;28;19920;-81
2022/03/05 12:18:49;;;;;;;;;;;6.20;50.20;;;;;;5086754;28;19920;-80
2022/03/05 12:21:23;;;;;;;;;;;6.20;51.30;;;;;;5087812;28;19909;-79
2022/03/05 12:23:49;;;;;;;;;;;6.30;50.80;;;;;;5093290;28;19918;-79
2022/03/05 12:26:16;;;;;;;;;;;6.30;50.00;;;;;;5064233;28;20357;-78
2022/03/05 12:28:42;;;;;;;;;;;6.30;49.30;;;;;;5056678;28;20011;-79
2022/03/05 12:31:11;;;;;;;;;;;6.30;49.30;;;;;;5072724;28;19909;-80
2022/03/05 12:33:37;;;;;;;;;;;6.30;49.20;;;;;;5057399;28;19917;-80
2022/03/05 12:36:03;;;;;;;;;;;6.30;49.00;;;;;;5089946;28;19928;-81
2022/03/05 12:38:29;;;;;;;;;;;6.30;48.50;;;;;;5055176;28;19913;-81
2022/03/05 12:40:54;;;;;;;;;;;6.30;48.80;;;;;;5071882;28;20395;-79
2022/03/05 12:43:20;;;;;;;;;;;6.30;49.50;;;;;;5074261;28;19920;-79
2022/03/05 12:45:50;;;;;;;;;;;6.30;48.30;;;;;;5077062;28;19923;-80
2022/03/05 12:48:17;;;;;;;;;;;6.30;48.80;;;;;;5075013;28;19921;-80
2022/03/05 12:50:46;;;;;;;;;;;6.30;48.80;;;;;;5073380;28;20284;-79
2022/03/05 12:53:15;;;;;;;;;;;6.40;49.10;;;;;;5084624;28;19912;-81
2022/03/05 12:55:45;;;;;;;;;;;6.30;50.10;;;;;;5075818;28;19913;-84
2022/03/05 12:58:17;;;;;;;;;;;6.30;49.80;;;;;;5068535;28;19924;-81
2022/03/05 13:00:45;;;;;;;;;;;6.20;49.20;;;;;;5095590;28;20003;-91
2022/03/05 13:03:14;;;;;;;;;;;6.10;49.80;;;;;;5055377;28;19912;-89
2022/03/05 13:05:40;;;;;;;;;;;6.10;50.00;;;;;;5070145;28;20317;-89
2022/03/05 13:08:06;;;;;;;;;;;6.10;49.20;;;;;;5102011;28;20271;-78
2022/03/05 13:10:33;;;;;;;;;;;6.10;50.00;;;;;;5091471;28;19962;-83
2022/03/05 13:13:01;;;;;;;;;;;6.10;49.30;;;;;;5073770;28;19936;-82
2022/03/05 13:15:31;;;;;;;;;;;6.20;50.70;;;;;;5059398;28;19985;-82
2022/03/05 13:18:04;;;;;;;;;;;6.20;50.60;;;;;;5067602;28;19958;-81
2022/03/05 13:20:30;;;;;;;;;;;6.10;50.90;;;;;;5076377;28;19913;-81
2022/03/05 13:22:55;;;;;;;;;;;6.00;48.80;;;;;;5081215;28;19956;-81
2022/03/05 13:25:21;;;;;;;;;;;6.10;49.00;;;;;;5056430;28;20350;-81
2022/03/05 13:27:47;;;;;;;;;;;6.10;49.60;;;;;;5061924;28;20381;-80
2022/03/05 13:30:17;;;;;;;;;;;6.20;49.70;;;;;;5055616;28;20334;-80
2022/03/05 13:32:42;;;;;;;;;;;6.20;49.20;;;;;;5091718;28;19919;-83
2022/03/05 13:35:11;;;;;;;;;;;6.20;48.50;;;;;;5071116;28;19917;-84
2022/03/05 13:37:37;;;;;;;;;;;6.20;48.80;;;;;;5075559;28;19983;-80
2022/03/05 13:40:04;;;;;;;;;;;6.20;49.40;;;;;;5091863;28;19943;-80
2022/03/05 13:42:33;;;;;;;;;;;6.30;50.40;;;;;;5087286;28;20359;-80
2022/03/05 13:45:00;;;;;;;;;;;6.20;49.50;;;;;;5071177;28;19916;-81
2022/03/05 13:47:25;;;;;;;;;;;6.20;49.00;;;;;;5073968;28;20027;-80
2022/03/05 13:49:52;;;;;;;;;;;6.10;51.70;;;;;;5092353;28;20015;-81
2022/03/05 13:52:19;;;;;;;;;;;6.10;51.70;;;;;;5061275;28;19925;-81
2022/03/05 13:54:47;;;;;;;;;;;6.00;52.10;;;;;;5070638;28;20333;-80
2022/03/05 13:59:48;;;;;;;;;;;6.10;50.10;;;;;;5078740;28;19930;-84
2022/03/05 14:02:14;;;;;;;;;;;6.10;50.80;;;;;;5075359;28;19934;-83
2022/03/05 14:04:58;;;;;;;;;;;6.10;49.80;;;;;;5069094;28;19916;-82
2022/03/05 14:07:24;;;;;;;;;;;6.00;49.90;;;;;;5090330;28;20312;-91
2022/03/05 14:09:50;;;;;;;;;;;6.00;50.70;;;;;;5091483;28;20452;-82
2022/03/05 14:12:18;;;;;;;;;;;6.00;50.00;;;;;;5074689;28;19972;-82
2022/03/05 14:14:51;;;;;;;;;;;5.90;49.40;;;;;;5092789;28;20456;-83
2022/03/05 14:17:32;;;;;;;;;;;5.90;48.90;;;;;;5070914;28;19916;-82
2022/03/05 14:20:10;;;;;;;;;;;5.90;50.00;;;;;;5091116;28;19908;-83
2022/03/05 14:22:40;;;;;;;;;;;5.90;50.10;;;;;;5075760;28;19996;-83